Fecha, hora, temperatura, viento dirección y velocidad, humedad y presión.

  • 16-01-2019 16:00:00 | 12.90°C | Sudoeste |3.00 km/h | 62.00% | 1006.00 hPa
  • 16-01-2019 15:00:00 | 13.50°C | Sur |6.00 km/h | 62.00% | 1005.80 hPa
  • 16-01-2019 14:00:00 | 11.80°C | Oeste |3.00 km/h | 76.00% | 1006.50 hPa
  • 16-01-2019 13:00:00 | 11.90°C | Oeste |5.00 km/h | 65.00% | 1006.90 hPa
  • 16-01-2019 12:00:00 | 11.70°C | Oeste |6.00 km/h | 65.00% | 1007.70 hPa
  • 16-01-2019 11:00:00 | 10.10°C | Sudoeste |5.00 km/h | 80.00% | 1007.50 hPa
  • 16-01-2019 10:00:00 | 8.20°C | Calma |0.00 km/h | 78.00% | 1007.30 hPa
  • 16-01-2019 09:00:00 | 6.70°C | Sur |5.00 km/h | 82.00% | 1006.80 hPa
  • 16-01-2019 08:00:00 | 6.90°C | Sudeste |6.00 km/h | 82.00% | 1006.30 hPa
  • 16-01-2019 07:00:00 | 6.00°C | Sur |3.00 km/h | 88.00% | 1006.10 hPa
  • 16-01-2019 06:00:00 | 5.50°C | Sur |4.00 km/h | 91.00% | 1005.90 hPa
  • 16-01-2019 05:00:00 | 5.00°C | Sudoeste |5.00 km/h | 94.00% | 1005.80 hPa
  • 16-01-2019 04:00:00 | 4.80°C | Sudoeste |8.00 km/h | 96.00% | 1006.50 hPa
  • 16-01-2019 03:00:00 | 4.30°C | Sur |8.00 km/h | 97.00% | 1006.50 hPa
  • 16-01-2019 02:00:00 | 4.20°C | Sur |10.00 km/h | 97.00% | 1006.80 hPa
  • 16-01-2019 01:00:00 | 4.60°C | Sur |10.00 km/h | 97.00% | 1007.40 hPa
  • 16-01-2019 00:00:00 | 5.20°C | Sur |10.00 km/h | 96.00% | 1008.20 hPa
  • 15-01-2019 23:00:00 | 5.30°C | Sur |8.00 km/h | 95.00% | 1008.30 hPa
  • 15-01-2019 22:00:00 | 6.00°C | Sur |8.00 km/h | 95.00% | 1008.60 hPa
  • 15-01-2019 21:00:00 | 6.30°C | Sudeste |6.00 km/h | 93.00% | 1008.90 hPa
  • 15-01-2019 20:00:00 | 6.90°C | Sudeste |5.00 km/h | 92.00% | 1009.00 hPa
  • 15-01-2019 19:00:00 | 7.60°C | Sudeste |3.00 km/h | 89.00% | 1008.90 hPa
  • 15-01-2019 18:00:00 | 8.60°C | Calma |0.00 km/h | 85.00% | 1009.00 hPa
  • 15-01-2019 17:00:00 | 10.10°C | Nordeste |8.00 km/h | 80.00% | 1008.90 hPa
    • diseño web asturias Información sobre el estado de las mareas, altura de la marejada, temperatura del agua y otros datos de Gijón en Asturias.

      Surf Gijón